LFRM 301030Z AUTO 08013KT 050V120 CAVOK 24/05 Q1019

ElémentsDécodage
LFRM Station météo située sur l'aérodrome de LE-MANS Arnage
301030Z émis le 30 du mois à 10h30 UTC
AUTO Bulletin édité par un automate
08013KT vent du 080°, 13 noeuds
050V120 vent de direction variable entre 050° et 120°
CAVOK Ceiling And Visibility OK
- Visibilité de 10 Km ou plus
- Pas de nuage au-dessous de 1500m ou au-dessous de l'altitude minimale du secteur la plus élevée (si>1500m) et absence de CB
- pas de temps présent significatif
24/05 température 24°C, point de rosée 05°C
 soit une humidité relative de 29%
Q1019 la pression au niveau de la mer (QNH) est de 1019 hPa